sensor_id;sensor_type;location;lat;lon;timestamp;P1;P2;P0
74333;PMS5003;62753;40.394;-80.022;2022-09-09T00:01:18;6;5;
74333;PMS5003;62753;40.394;-80.022;2022-09-09T00:03:42;3;3;
74333;PMS5003;62753;40.394;-80.022;2022-09-09T00:06:07;5;5;
74333;PMS5003;62753;40.394;-80.022;2022-09-09T00:08:32;4;4;
74333;PMS5003;62753;40.394;-80.022;2022-09-09T00:10:57;5;5;
74333;PMS5003;62753;40.394;-80.022;2022-09-09T00:13:22;6;6;
74333;PMS5003;62753;40.394;-80.022;2022-09-09T00:15:51;4;4;
74333;PMS5003;62753;40.394;-80.022;2022-09-09T00:18:15;4;4;
74333;PMS5003;62753;40.394;-80.022;2022-09-09T00:20:37;6;5;
74333;PMS5003;62753;40.394;-80.022;2022-09-09T00:23:03;5;5;
74333;PMS5003;62753;40.394;-80.022;2022-09-09T00:25:27;5;4;
74333;PMS5003;62753;40.394;-80.022;2022-09-09T00:27:51;5;5;
74333;PMS5003;62753;40.394;-80.022;2022-09-09T00:30:17;5;5;
74333;PMS5003;62753;40.394;-80.022;2022-09-09T00:32:41;6;6;
74333;PMS5003;62753;40.394;-80.022;2022-09-09T00:35:12;5;5;
74333;PMS5003;62753;40.394;-80.022;2022-09-09T00:37:31;6;6;
74333;PMS5003;62753;40.394;-80.022;2022-09-09T00:39:59;6;6;
74333;PMS5003;62753;40.394;-80.022;2022-09-09T00:42:23;6;6;
74333;PMS5003;62753;40.394;-80.022;2022-09-09T00:44:51;5;5;
74333;PMS5003;62753;40.394;-80.022;2022-09-09T00:47:17;7;7;
74333;PMS5003;62753;40.394;-80.022;2022-09-09T00:49:41;6;6;
74333;PMS5003;62753;40.394;-80.022;2022-09-09T00:52:05;6;6;
74333;PMS5003;62753;40.394;-80.022;2022-09-09T00:54:31;5;5;
74333;PMS5003;62753;40.394;-80.022;2022-09-09T00:56:55;7;7;
74333;PMS5003;62753;40.394;-80.022;2022-09-09T00:59:22;7;6;
74333;PMS5003;62753;40.394;-80.022;2022-09-09T01:01:43;6;6;
74333;PMS5003;62753;40.394;-80.022;2022-09-09T01:04:09;5;5;
74333;PMS5003;62753;40.394;-80.022;2022-09-09T01:06:34;7;6;
74333;PMS5003;62753;40.394;-80.022;2022-09-09T01:09:08;8;8;
74333;PMS5003;62753;40.394;-80.022;2022-09-09T01:11:25;7;7;
74333;PMS5003;62753;40.394;-80.022;2022-09-09T01:13:50;8;8;
74333;PMS5003;62753;40.394;-80.022;2022-09-09T01:16:14;7;7;
74333;PMS5003;62753;40.394;-80.022;2022-09-09T01:18:40;8;8;
74333;PMS5003;62753;40.394;-80.022;2022-09-09T01:21:06;6;6;
74333;PMS5003;62753;40.394;-80.022;2022-09-09T01:23:35;6;6;
74333;PMS5003;62753;40.394;-80.022;2022-09-09T01:26:05;6;6;
74333;PMS5003;62753;40.394;-80.022;2022-09-09T01:28:21;10;8;
74333;PMS5003;62753;40.394;-80.022;2022-09-09T01:30:45;13;12;
74333;PMS5003;62753;40.394;-80.022;2022-09-09T01:33:11;10;10;
74333;PMS5003;62753;40.394;-80.022;2022-09-09T01:35:37;12;12;
74333;PMS5003;62753;40.394;-80.022;2022-09-09T01:38:00;12;11;
74333;PMS5003;62753;40.394;-80.022;2022-09-09T01:40:25;11;10;
74333;PMS5003;62753;40.394;-80.022;2022-09-09T01:42:51;19;15;
74333;PMS5003;62753;40.394;-80.022;2022-09-09T01:45:16;17;17;
74333;PMS5003;62753;40.394;-80.022;2022-09-09T01:47:42;18;15;
74333;PMS5003;62753;40.394;-80.022;2022-09-09T01:50:07;9;7;
74333;PMS5003;62753;40.394;-80.022;2022-09-09T01:52:32;6;6;
74333;PMS5003;62753;40.394;-80.022;2022-09-09T01:54:57;10;9;
74333;PMS5003;62753;40.394;-80.022;2022-09-09T01:57:23;9;8;
74333;PMS5003;62753;40.394;-80.022;2022-09-09T01:59:50;11;10;
74333;PMS5003;62753;40.394;-80.022;2022-09-09T02:02:14;8;7;
74333;PMS5003;62753;40.394;-80.022;2022-09-09T02:04:39;8;8;
74333;PMS5003;62753;40.394;-80.022;2022-09-09T02:07:04;9;8;
74333;PMS5003;62753;40.394;-80.022;2022-09-09T02:09:29;7;7;
74333;PMS5003;62753;40.394;-80.022;2022-09-09T02:11:55;8;8;
74333;PMS5003;62753;40.394;-80.022;2022-09-09T02:14:21;9;8;
74333;PMS5003;62753;40.394;-80.022;2022-09-09T02:16:44;9;9;
74333;PMS5003;62753;40.394;-80.022;2022-09-09T02:19:11;10;10;
74333;PMS5003;62753;40.394;-80.022;2022-09-09T02:21:34;13;12;
74333;PMS5003;62753;40.394;-80.022;2022-09-09T02:23:59;10;10;
74333;PMS5003;62753;40.394;-80.022;2022-09-09T02:26:24;13;12;
74333;PMS5003;62753;40.394;-80.022;2022-09-09T02:28:50;16;15;
74333;PMS5003;62753;40.394;-80.022;2022-09-09T02:31:15;17;16;
74333;PMS5003;62753;40.394;-80.022;2022-09-09T02:33:41;15;15;
74333;PMS5003;62753;40.394;-80.022;2022-09-09T02:36:06;18;15;
74333;PMS5003;62753;40.394;-80.022;2022-09-09T02:38:33;15;15;
74333;PMS5003;62753;40.394;-80.022;2022-09-09T02:40:57;15;15;
74333;PMS5003;62753;40.394;-80.022;2022-09-09T02:43:23;12;12;
74333;PMS5003;62753;40.394;-80.022;2022-09-09T02:45:48;14;14;
74333;PMS5003;62753;40.394;-80.022;2022-09-09T02:48:14;14;13;
74333;PMS5003;62753;40.394;-80.022;2022-09-09T02:50:39;11;11;
74333;PMS5003;62753;40.394;-80.022;2022-09-09T02:53:06;11;11;
74333;PMS5003;62753;40.394;-80.022;2022-09-09T02:55:32;11;11;
74333;PMS5003;62753;40.394;-80.022;2022-09-09T02:57:53;10;10;
74333;PMS5003;62753;40.394;-80.022;2022-09-09T03:00:22;15;13;
74333;PMS5003;62753;40.394;-80.022;2022-09-09T03:02:43;12;12;
74333;PMS5003;62753;40.394;-80.022;2022-09-09T03:05:09;12;11;
74333;PMS5003;62753;40.394;-80.022;2022-09-09T03:07:35;11;11;
74333;PMS5003;62753;40.394;-80.022;2022-09-09T03:09:59;14;13;
74333;PMS5003;62753;40.394;-80.022;2022-09-09T03:12:24;14;13;
74333;PMS5003;62753;40.394;-80.022;2022-09-09T03:14:50;12;12;
74333;PMS5003;62753;40.394;-80.022;2022-09-09T03:17:15;15;13;
74333;PMS5003;62753;40.394;-80.022;2022-09-09T03:19:40;12;12;
74333;PMS5003;62753;40.394;-80.022;2022-09-09T03:22:05;13;12;
74333;PMS5003;62753;40.394;-80.022;2022-09-09T03:24:30;15;12;
74333;PMS5003;62753;40.394;-80.022;2022-09-09T03:26:56;13;12;
74333;PMS5003;62753;40.394;-80.022;2022-09-09T03:29:21;13;12;
74333;PMS5003;62753;40.394;-80.022;2022-09-09T03:31:46;14;13;
74333;PMS5003;62753;40.394;-80.022;2022-09-09T03:34:11;13;12;
74333;PMS5003;62753;40.394;-80.022;2022-09-09T03:36:36;14;12;
74333;PMS5003;62753;40.394;-80.022;2022-09-09T03:39:02;12;12;
74333;PMS5003;62753;40.394;-80.022;2022-09-09T03:41:27;13;12;
74333;PMS5003;62753;40.394;-80.022;2022-09-09T03:43:52;13;12;
74333;PMS5003;62753;40.394;-80.022;2022-09-09T03:46:17;12;12;
74333;PMS5003;62753;40.394;-80.022;2022-09-09T03:48:42;12;11;
74333;PMS5003;62753;40.394;-80.022;2022-09-09T03:51:07;16;14;
74333;PMS5003;62753;40.394;-80.022;2022-09-09T03:53:33;13;13;
74333;PMS5003;62753;40.394;-80.022;2022-09-09T03:55:59;16;15;
74333;PMS5003;62753;40.394;-80.022;2022-09-09T03:58:23;16;15;
74333;PMS5003;62753;40.394;-80.022;2022-09-09T04:00:53;14;14;
74333;PMS5003;62753;40.394;-80.022;2022-09-09T04:03:14;15;14;
74333;PMS5003;62753;40.394;-80.022;2022-09-09T04:05:40;12;12;
74333;PMS5003;62753;40.394;-80.022;2022-09-09T04:08:05;14;14;
74333;PMS5003;62753;40.394;-80.022;2022-09-09T04:10:30;15;14;
74333;PMS5003;62753;40.394;-80.022;2022-09-09T04:12:55;16;15;
74333;PMS5003;62753;40.394;-80.022;2022-09-09T04:15:20;18;18;
74333;PMS5003;62753;40.394;-80.022;2022-09-09T04:17:46;20;19;
74333;PMS5003;62753;40.394;-80.022;2022-09-09T04:20:12;16;16;
74333;PMS5003;62753;40.394;-80.022;2022-09-09T04:22:37;15;14;
74333;PMS5003;62753;40.394;-80.022;2022-09-09T04:25:03;17;17;
74333;PMS5003;62753;40.394;-80.022;2022-09-09T04:27:28;13;13;
74333;PMS5003;62753;40.394;-80.022;2022-09-09T04:29:53;12;11;
74333;PMS5003;62753;40.394;-80.022;2022-09-09T04:32:18;12;12;
74333;PMS5003;62753;40.394;-80.022;2022-09-09T04:34:43;14;14;
74333;PMS5003;62753;40.394;-80.022;2022-09-09T04:37:08;15;15;
74333;PMS5003;62753;40.394;-80.022;2022-09-09T04:39:34;13;13;
74333;PMS5003;62753;40.394;-80.022;2022-09-09T04:41:59;14;13;
74333;PMS5003;62753;40.394;-80.022;2022-09-09T04:44:29;15;13;
74333;PMS5003;62753;40.394;-80.022;2022-09-09T04:46:49;15;14;
74333;PMS5003;62753;40.394;-80.022;2022-09-09T04:49:14;14;13;
74333;PMS5003;62753;40.394;-80.022;2022-09-09T04:51:39;13;13;
74333;PMS5003;62753;40.394;-80.022;2022-09-09T04:54:05;12;12;
74333;PMS5003;62753;40.394;-80.022;2022-09-09T04:56:30;13;13;
74333;PMS5003;62753;40.394;-80.022;2022-09-09T04:58:55;15;13;
74333;PMS5003;62753;40.394;-80.022;2022-09-09T05:01:21;12;10;
74333;PMS5003;62753;40.394;-80.022;2022-09-09T05:03:46;12;11;
74333;PMS5003;62753;40.394;-80.022;2022-09-09T05:06:13;14;13;
74333;PMS5003;62753;40.394;-80.022;2022-09-09T05:08:37;13;12;
74333;PMS5003;62753;40.394;-80.022;2022-09-09T05:11:02;12;11;
74333;PMS5003;62753;40.394;-80.022;2022-09-09T05:13:27;15;14;
74333;PMS5003;62753;40.394;-80.022;2022-09-09T05:15:52;12;12;
74333;PMS5003;62753;40.394;-80.022;2022-09-09T05:18:17;14;14;
74333;PMS5003;62753;40.394;-80.022;2022-09-09T05:20:43;16;14;
74333;PMS5003;62753;40.394;-80.022;2022-09-09T05:23:08;14;14;
74333;PMS5003;62753;40.394;-80.022;2022-09-09T05:25:33;12;9;
74333;PMS5003;62753;40.394;-80.022;2022-09-09T05:27:58;15;15;
74333;PMS5003;62753;40.394;-80.022;2022-09-09T05:30:23;16;15;
74333;PMS5003;62753;40.394;-80.022;2022-09-09T05:32:49;11;11;
74333;PMS5003;62753;40.394;-80.022;2022-09-09T05:35:14;14;14;
74333;PMS5003;62753;40.394;-80.022;2022-09-09T05:37:39;13;12;
74333;PMS5003;62753;40.394;-80.022;2022-09-09T05:40:04;16;14;
74333;PMS5003;62753;40.394;-80.022;2022-09-09T05:42:30;13;12;
74333;PMS5003;62753;40.394;-80.022;2022-09-09T05:44:55;14;13;
74333;PMS5003;62753;40.394;-80.022;2022-09-09T05:47:20;13;12;
74333;PMS5003;62753;40.394;-80.022;2022-09-09T05:49:45;13;13;
74333;PMS5003;62753;40.394;-80.022;2022-09-09T05:52:10;15;13;
74333;PMS5003;62753;40.394;-80.022;2022-09-09T05:54:35;15;14;
74333;PMS5003;62753;40.394;-80.022;2022-09-09T05:57:01;14;14;
74333;PMS5003;62753;40.394;-80.022;2022-09-09T05:59:26;14;13;
74333;PMS5003;62753;40.394;-80.022;2022-09-09T06:01:51;18;16;
74333;PMS5003;62753;40.394;-80.022;2022-09-09T06:04:16;14;13;
74333;PMS5003;62753;40.394;-80.022;2022-09-09T06:06:41;14;13;
74333;PMS5003;62753;40.394;-80.022;2022-09-09T06:09:07;17;16;
74333;PMS5003;62753;40.394;-80.022;2022-09-09T06:11:32;19;18;
74333;PMS5003;62753;40.394;-80.022;2022-09-09T06:13:57;15;12;
74333;PMS5003;62753;40.394;-80.022;2022-09-09T06:16:23;15;13;
74333;PMS5003;62753;40.394;-80.022;2022-09-09T06:18:47;16;16;
74333;PMS5003;62753;40.394;-80.022;2022-09-09T06:21:15;16;15;
74333;PMS5003;62753;40.394;-80.022;2022-09-09T06:23:38;15;15;
74333;PMS5003;62753;40.394;-80.022;2022-09-09T06:26:04;14;14;
74333;PMS5003;62753;40.394;-80.022;2022-09-09T06:28:28;15;15;
74333;PMS5003;62753;40.394;-80.022;2022-09-09T06:30:57;15;15;
74333;PMS5003;62753;40.394;-80.022;2022-09-09T06:33:19;15;14;
74333;PMS5003;62753;40.394;-80.022;2022-09-09T06:38:09;17;16;
74333;PMS5003;62753;40.394;-80.022;2022-09-09T06:40:34;16;14;
74333;PMS5003;62753;40.394;-80.022;2022-09-09T06:43:00;16;15;
74333;PMS5003;62753;40.394;-80.022;2022-09-09T06:45:26;18;17;
74333;PMS5003;62753;40.394;-80.022;2022-09-09T06:47:51;18;17;
74333;PMS5003;62753;40.394;-80.022;2022-09-09T06:50:17;15;14;
74333;PMS5003;62753;40.394;-80.022;2022-09-09T06:52:42;17;16;
74333;PMS5003;62753;40.394;-80.022;2022-09-09T06:55:07;16;15;
74333;PMS5003;62753;40.394;-80.022;2022-09-09T06:57:32;13;13;
74333;PMS5003;62753;40.394;-80.022;2022-09-09T06:59:57;16;16;
74333;PMS5003;62753;40.394;-80.022;2022-09-09T07:02:23;16;15;
74333;PMS5003;62753;40.394;-80.022;2022-09-09T07:04:48;17;16;
74333;PMS5003;62753;40.394;-80.022;2022-09-09T07:07:13;18;17;
74333;PMS5003;62753;40.394;-80.022;2022-09-09T07:09:39;15;14;
74333;PMS5003;62753;40.394;-80.022;2022-09-09T07:12:04;16;15;
74333;PMS5003;62753;40.394;-80.022;2022-09-09T07:14:29;17;16;
74333;PMS5003;62753;40.394;-80.022;2022-09-09T07:16:54;15;15;
74333;PMS5003;62753;40.394;-80.022;2022-09-09T07:19:20;21;15;
74333;PMS5003;62753;40.394;-80.022;2022-09-09T07:21:46;13;13;
74333;PMS5003;62753;40.394;-80.022;2022-09-09T07:24:11;16;15;
74333;PMS5003;62753;40.394;-80.022;2022-09-09T07:26:36;16;14;
74333;PMS5003;62753;40.394;-80.022;2022-09-09T07:29:01;16;15;
74333;PMS5003;62753;40.394;-80.022;2022-09-09T07:31:27;15;13;
74333;PMS5003;62753;40.394;-80.022;2022-09-09T07:33:52;19;18;
74333;PMS5003;62753;40.394;-80.022;2022-09-09T07:36:17;16;16;
74333;PMS5003;62753;40.394;-80.022;2022-09-09T07:38:42;17;17;
74333;PMS5003;62753;40.394;-80.022;2022-09-09T07:41:08;21;16;
74333;PMS5003;62753;40.394;-80.022;2022-09-09T07:43:33;15;15;
74333;PMS5003;62753;40.394;-80.022;2022-09-09T07:45:58;18;17;
74333;PMS5003;62753;40.394;-80.022;2022-09-09T07:48:23;16;15;
74333;PMS5003;62753;40.394;-80.022;2022-09-09T07:50:48;18;16;
74333;PMS5003;62753;40.394;-80.022;2022-09-09T07:53:14;18;17;
74333;PMS5003;62753;40.394;-80.022;2022-09-09T07:55:39;16;15;
74333;PMS5003;62753;40.394;-80.022;2022-09-09T07:58:05;16;15;
74333;PMS5003;62753;40.394;-80.022;2022-09-09T08:00:30;16;16;
74333;PMS5003;62753;40.394;-80.022;2022-09-09T08:02:55;17;16;
74333;PMS5003;62753;40.394;-80.022;2022-09-09T08:05:21;16;16;
74333;PMS5003;62753;40.394;-80.022;2022-09-09T08:07:46;18;14;
74333;PMS5003;62753;40.394;-80.022;2022-09-09T08:10:12;19;16;
74333;PMS5003;62753;40.394;-80.022;2022-09-09T08:12:37;15;15;
74333;PMS5003;62753;40.394;-80.022;2022-09-09T08:15:03;17;17;
74333;PMS5003;62753;40.394;-80.022;2022-09-09T08:17:28;16;16;
74333;PMS5003;62753;40.394;-80.022;2022-09-09T08:19:53;17;16;
74333;PMS5003;62753;40.394;-80.022;2022-09-09T08:22:18;16;16;
74333;PMS5003;62753;40.394;-80.022;2022-09-09T08:24:43;16;16;
74333;PMS5003;62753;40.394;-80.022;2022-09-09T08:27:09;17;15;
74333;PMS5003;62753;40.394;-80.022;2022-09-09T08:29:35;17;16;
74333;PMS5003;62753;40.394;-80.022;2022-09-09T08:32:00;20;18;
74333;PMS5003;62753;40.394;-80.022;2022-09-09T08:34:26;16;15;
74333;PMS5003;62753;40.394;-80.022;2022-09-09T08:36:51;12;12;
74333;PMS5003;62753;40.394;-80.022;2022-09-09T08:39:16;16;16;
74333;PMS5003;62753;40.394;-80.022;2022-09-09T08:41:49;17;16;
74333;PMS5003;62753;40.394;-80.022;2022-09-09T08:44:07;19;15;
74333;PMS5003;62753;40.394;-80.022;2022-09-09T08:46:34;16;16;
74333;PMS5003;62753;40.394;-80.022;2022-09-09T08:48:59;15;15;
74333;PMS5003;62753;40.394;-80.022;2022-09-09T08:51:24;14;14;
74333;PMS5003;62753;40.394;-80.022;2022-09-09T08:53:49;14;13;
74333;PMS5003;62753;40.394;-80.022;2022-09-09T08:56:15;17;17;
74333;PMS5003;62753;40.394;-80.022;2022-09-09T08:58:41;16;15;
74333;PMS5003;62753;40.394;-80.022;2022-09-09T09:01:16;15;14;
74333;PMS5003;62753;40.394;-80.022;2022-09-09T09:03:33;16;16;
74333;PMS5003;62753;40.394;-80.022;2022-09-09T09:05:57;15;15;
74333;PMS5003;62753;40.394;-80.022;2022-09-09T09:08:22;20;18;
74333;PMS5003;62753;40.394;-80.022;2022-09-09T09:10:47;19;16;
74333;PMS5003;62753;40.394;-80.022;2022-09-09T09:13:13;17;16;
74333;PMS5003;62753;40.394;-80.022;2022-09-09T09:15:37;16;16;
74333;PMS5003;62753;40.394;-80.022;2022-09-09T09:18:02;15;15;
74333;PMS5003;62753;40.394;-80.022;2022-09-09T09:20:28;14;13;
74333;PMS5003;62753;40.394;-80.022;2022-09-09T09:22:52;14;14;
74333;PMS5003;62753;40.394;-80.022;2022-09-09T09:25:18;17;16;
74333;PMS5003;62753;40.394;-80.022;2022-09-09T09:27:43;14;14;
74333;PMS5003;62753;40.394;-80.022;2022-09-09T09:30:13;16;15;
74333;PMS5003;62753;40.394;-80.022;2022-09-09T09:32:33;13;12;
74333;PMS5003;62753;40.394;-80.022;2022-09-09T09:34:58;16;16;
74333;PMS5003;62753;40.394;-80.022;2022-09-09T09:37:26;17;15;
74333;PMS5003;62753;40.394;-80.022;2022-09-09T09:39:49;14;14;
74333;PMS5003;62753;40.394;-80.022;2022-09-09T09:42:15;14;13;
74333;PMS5003;62753;40.394;-80.022;2022-09-09T09:44:39;13;13;
74333;PMS5003;62753;40.394;-80.022;2022-09-09T09:47:06;14;14;
74333;PMS5003;62753;40.394;-80.022;2022-09-09T09:49:29;16;15;
74333;PMS5003;62753;40.394;-80.022;2022-09-09T09:51:59;14;13;
74333;PMS5003;62753;40.394;-80.022;2022-09-09T09:54:22;17;14;
74333;PMS5003;62753;40.394;-80.022;2022-09-09T09:56:45;12;11;
74333;PMS5003;62753;40.394;-80.022;2022-09-09T09:59:21;15;15;
74333;PMS5003;62753;40.394;-80.022;2022-09-09T10:01:36;15;12;
74333;PMS5003;62753;40.394;-80.022;2022-09-09T10:04:02;11;11;
74333;PMS5003;62753;40.394;-80.022;2022-09-09T10:06:30;15;14;
74333;PMS5003;62753;40.394;-80.022;2022-09-09T10:08:52;17;15;
74333;PMS5003;62753;40.394;-80.022;2022-09-09T10:11:23;15;15;
74333;PMS5003;62753;40.394;-80.022;2022-09-09T10:13:45;14;14;
74333;PMS5003;62753;40.394;-80.022;2022-09-09T10:16:13;15;14;
74333;PMS5003;62753;40.394;-80.022;2022-09-09T10:18:38;16;15;
74333;PMS5003;62753;40.394;-80.022;2022-09-09T10:21:01;15;15;
74333;PMS5003;62753;40.394;-80.022;2022-09-09T10:23:29;15;15;
74333;PMS5003;62753;40.394;-80.022;2022-09-09T10:25:55;16;14;
74333;PMS5003;62753;40.394;-80.022;2022-09-09T10:28:20;14;13;
74333;PMS5003;62753;40.394;-80.022;2022-09-09T10:30:42;16;15;
74333;PMS5003;62753;40.394;-80.022;2022-09-09T10:33:08;16;12;
74333;PMS5003;62753;40.394;-80.022;2022-09-09T10:35:33;17;16;
74333;PMS5003;62753;40.394;-80.022;2022-09-09T10:38:02;15;14;
74333;PMS5003;62753;40.394;-80.022;2022-09-09T10:40:30;12;12;
74333;PMS5003;62753;40.394;-80.022;2022-09-09T10:42:47;15;15;
74333;PMS5003;62753;40.394;-80.022;2022-09-09T10:45:16;15;15;
74333;PMS5003;62753;40.394;-80.022;2022-09-09T10:47:42;17;17;
74333;PMS5003;62753;40.394;-80.022;2022-09-09T10:50:08;15;15;
74333;PMS5003;62753;40.394;-80.022;2022-09-09T10:52:29;15;15;
74333;PMS5003;62753;40.394;-80.022;2022-09-09T10:54:55;17;16;
74333;PMS5003;62753;40.394;-80.022;2022-09-09T10:57:22;14;14;
74333;PMS5003;62753;40.394;-80.022;2022-09-09T10:59:46;18;15;
74333;PMS5003;62753;40.394;-80.022;2022-09-09T11:02:12;16;14;
74333;PMS5003;62753;40.394;-80.022;2022-09-09T11:04:38;18;15;
74333;PMS5003;62753;40.394;-80.022;2022-09-09T11:07:02;19;15;
74333;PMS5003;62753;40.394;-80.022;2022-09-09T11:09:27;14;14;
74333;PMS5003;62753;40.394;-80.022;2022-09-09T11:11:53;18;17;
74333;PMS5003;62753;40.394;-80.022;2022-09-09T11:14:19;14;12;
74333;PMS5003;62753;40.394;-80.022;2022-09-09T11:16:45;17;16;
74333;PMS5003;62753;40.394;-80.022;2022-09-09T11:19:11;14;14;
74333;PMS5003;62753;40.394;-80.022;2022-09-09T11:21:35;14;14;
74333;PMS5003;62753;40.394;-80.022;2022-09-09T11:23:59;16;16;
74333;PMS5003;62753;40.394;-80.022;2022-09-09T11:26:28;15;14;
74333;PMS5003;62753;40.394;-80.022;2022-09-09T11:28:53;14;14;
74333;PMS5003;62753;40.394;-80.022;2022-09-09T11:31:21;15;14;
74333;PMS5003;62753;40.394;-80.022;2022-09-09T11:33:42;12;12;
74333;PMS5003;62753;40.394;-80.022;2022-09-09T11:36:11;12;12;
74333;PMS5003;62753;40.394;-80.022;2022-09-09T11:38:32;16;15;
74333;PMS5003;62753;40.394;-80.022;2022-09-09T11:40:56;13;13;
74333;PMS5003;62753;40.394;-80.022;2022-09-09T11:43:22;14;14;
74333;PMS5003;62753;40.394;-80.022;2022-09-09T11:45:50;14;14;
74333;PMS5003;62753;40.394;-80.022;2022-09-09T11:50:37;14;13;
74333;PMS5003;62753;40.394;-80.022;2022-09-09T11:53:04;20;16;
74333;PMS5003;62753;40.394;-80.022;2022-09-09T11:55:28;16;15;
74333;PMS5003;62753;40.394;-80.022;2022-09-09T11:57:57;20;16;
74333;PMS5003;62753;40.394;-80.022;2022-09-09T12:05:09;14;14;
74333;PMS5003;62753;40.394;-80.022;2022-09-09T12:07:35;16;15;
74333;PMS5003;62753;40.394;-80.022;2022-09-09T12:10:00;12;12;
74333;PMS5003;62753;40.394;-80.022;2022-09-09T12:12:27;11;11;
74333;PMS5003;62753;40.394;-80.022;2022-09-09T12:14:56;15;14;
74333;PMS5003;62753;40.394;-80.022;2022-09-09T12:17:17;15;13;
74333;PMS5003;62753;40.394;-80.022;2022-09-09T12:19:41;13;13;
74333;PMS5003;62753;40.394;-80.022;2022-09-09T12:22:07;15;14;
74333;PMS5003;62753;40.394;-80.022;2022-09-09T12:24:33;15;15;
74333;PMS5003;62753;40.394;-80.022;2022-09-09T12:26:58;14;14;
74333;PMS5003;62753;40.394;-80.022;2022-09-09T12:29:24;13;12;
74333;PMS5003;62753;40.394;-80.022;2022-09-09T12:31:49;18;15;
74333;PMS5003;62753;40.394;-80.022;2022-09-09T12:34:14;14;13;
74333;PMS5003;62753;40.394;-80.022;2022-09-09T12:36:39;16;14;
74333;PMS5003;62753;40.394;-80.022;2022-09-09T12:41:29;17;16;
74333;PMS5003;62753;40.394;-80.022;2022-09-09T12:46:22;15;14;
74333;PMS5003;62753;40.394;-80.022;2022-09-09T12:48:46;12;12;
74333;PMS5003;62753;40.394;-80.022;2022-09-09T12:53:36;16;14;
74333;PMS5003;62753;40.394;-80.022;2022-09-09T12:56:03;13;12;
74333;PMS5003;62753;40.394;-80.022;2022-09-09T12:58:27;9;9;
74333;PMS5003;62753;40.394;-80.022;2022-09-09T13:00:54;13;12;
74333;PMS5003;62753;40.394;-80.022;2022-09-09T13:03:19;14;13;
74333;PMS5003;62753;40.394;-80.022;2022-09-09T13:05:44;12;11;
74333;PMS5003;62753;40.394;-80.022;2022-09-09T13:08:10;10;10;
74333;PMS5003;62753;40.394;-80.022;2022-09-09T13:10:35;9;9;
74333;PMS5003;62753;40.394;-80.022;2022-09-09T13:12:59;10;10;
74333;PMS5003;62753;40.394;-80.022;2022-09-09T13:15:25;10;10;
74333;PMS5003;62753;40.394;-80.022;2022-09-09T13:17:51;10;9;
74333;PMS5003;62753;40.394;-80.022;2022-09-09T13:20:16;12;10;
74333;PMS5003;62753;40.394;-80.022;2022-09-09T13:22:40;10;9;
74333;PMS5003;62753;40.394;-80.022;2022-09-09T13:25:13;11;9;
74333;PMS5003;62753;40.394;-80.022;2022-09-09T13:27:31;8;7;
74333;PMS5003;62753;40.394;-80.022;2022-09-09T13:29:56;11;7;
74333;PMS5003;62753;40.394;-80.022;2022-09-09T13:32:21;7;7;
74333;PMS5003;62753;40.394;-80.022;2022-09-09T13:34:50;10;8;
74333;PMS5003;62753;40.394;-80.022;2022-09-09T13:37:16;8;8;
74333;PMS5003;62753;40.394;-80.022;2022-09-09T13:39:36;10;10;
74333;PMS5003;62753;40.394;-80.022;2022-09-09T13:42:02;13;9;
74333;PMS5003;62753;40.394;-80.022;2022-09-09T13:44:28;9;9;
74333;PMS5003;62753;40.394;-80.022;2022-09-09T13:47:01;8;7;
74333;PMS5003;62753;40.394;-80.022;2022-09-09T13:49:20;11;10;
74333;PMS5003;62753;40.394;-80.022;2022-09-09T13:51:43;8;8;
74333;PMS5003;62753;40.394;-80.022;2022-09-09T13:54:08;11;10;
74333;PMS5003;62753;40.394;-80.022;2022-09-09T13:56:33;10;8;
74333;PMS5003;62753;40.394;-80.022;2022-09-09T13:58:58;8;8;
74333;PMS5003;62753;40.394;-80.022;2022-09-09T14:01:23;8;8;
74333;PMS5003;62753;40.394;-80.022;2022-09-09T14:03:48;7;7;
74333;PMS5003;62753;40.394;-80.022;2022-09-09T14:06:13;10;9;
74333;PMS5003;62753;40.394;-80.022;2022-09-09T14:08:38;6;6;
74333;PMS5003;62753;40.394;-80.022;2022-09-09T14:11:03;8;7;
74333;PMS5003;62753;40.394;-80.022;2022-09-09T14:13:29;9;7;
74333;PMS5003;62753;40.394;-80.022;2022-09-09T14:15:53;9;9;
74333;PMS5003;62753;40.394;-80.022;2022-09-09T14:18:19;8;8;
74333;PMS5003;62753;40.394;-80.022;2022-09-09T14:20:44;6;6;
74333;PMS5003;62753;40.394;-80.022;2022-09-09T14:23:10;6;6;
74333;PMS5003;62753;40.394;-80.022;2022-09-09T14:25:34;5;5;
74333;PMS5003;62753;40.394;-80.022;2022-09-09T14:27:59;5;5;
74333;PMS5003;62753;40.394;-80.022;2022-09-09T14:30:24;7;5;
74333;PMS5003;62753;40.394;-80.022;2022-09-09T14:32:49;5;5;
74333;PMS5003;62753;40.394;-80.022;2022-09-09T14:35:14;4;4;
74333;PMS5003;62753;40.394;-80.022;2022-09-09T14:37:40;5;5;
74333;PMS5003;62753;40.394;-80.022;2022-09-09T14:40:05;4;4;
74333;PMS5003;62753;40.394;-80.022;2022-09-09T14:42:30;2;2;
74333;PMS5003;62753;40.394;-80.022;2022-09-09T14:44:55;3;3;
74333;PMS5003;62753;40.394;-80.022;2022-09-09T14:47:20;3;3;
74333;PMS5003;62753;40.394;-80.022;2022-09-09T14:49:45;3;3;
74333;PMS5003;62753;40.394;-80.022;2022-09-09T14:52:10;4;3;
74333;PMS5003;62753;40.394;-80.022;2022-09-09T14:54:35;3;2;
74333;PMS5003;62753;40.394;-80.022;2022-09-09T14:57:00;4;4;
74333;PMS5003;62753;40.394;-80.022;2022-09-09T14:59:25;2;2;
74333;PMS5003;62753;40.394;-80.022;2022-09-09T15:01:51;2;2;
74333;PMS5003;62753;40.394;-80.022;2022-09-09T15:04:15;3;3;
74333;PMS5003;62753;40.394;-80.022;2022-09-09T15:06:40;4;4;
74333;PMS5003;62753;40.394;-80.022;2022-09-09T15:09:05;3;3;
74333;PMS5003;62753;40.394;-80.022;2022-09-09T15:11:33;3;3;
74333;PMS5003;62753;40.394;-80.022;2022-09-09T15:13:56;3;3;
74333;PMS5003;62753;40.394;-80.022;2022-09-09T15:16:21;3;3;
74333;PMS5003;62753;40.394;-80.022;2022-09-09T15:18:46;3;3;
74333;PMS5003;62753;40.394;-80.022;2022-09-09T15:21:12;4;4;
74333;PMS5003;62753;40.394;-80.022;2022-09-09T15:23:36;2;2;
74333;PMS5003;62753;40.394;-80.022;2022-09-09T15:26:02;1;1;
74333;PMS5003;62753;40.394;-80.022;2022-09-09T15:28:26;4;4;
74333;PMS5003;62753;40.394;-80.022;2022-09-09T15:30:52;3;3;
74333;PMS5003;62753;40.394;-80.022;2022-09-09T15:33:16;4;4;
74333;PMS5003;62753;40.394;-80.022;2022-09-09T15:35:41;4;4;
74333;PMS5003;62753;40.394;-80.022;2022-09-09T15:38:07;3;3;
74333;PMS5003;62753;40.394;-80.022;2022-09-09T15:40:32;6;5;
74333;PMS5003;62753;40.394;-80.022;2022-09-09T15:42:57;2;2;
74333;PMS5003;62753;40.394;-80.022;2022-09-09T15:45:22;4;4;
74333;PMS5003;62753;40.394;-80.022;2022-09-09T15:47:47;3;3;
74333;PMS5003;62753;40.394;-80.022;2022-09-09T15:50:12;4;4;
74333;PMS5003;62753;40.394;-80.022;2022-09-09T15:52:37;3;3;
74333;PMS5003;62753;40.394;-80.022;2022-09-09T15:55:02;5;5;
74333;PMS5003;62753;40.394;-80.022;2022-09-09T15:57:28;4;4;